Corpus Christi Jet Center

SKYE FBO - AIRPORT SERVICES
McCampbell-Porter Airport KTFP
Call Us 24/7: (361) 758-2000
KTFP - McCampbell-Porter Airport
Updated: Sat, 22-Sep-2018 7:15am PDT
Partly Cloudy
Partly Cloudy
 Wind from W
Wind: W 9 mph , 15 km/h
Temperature: 82°F , 28°C
Heat Index: 90°F , 32°C
Dew Point: 77°F , 25°C
Humidity: 84%
Barometer: 29.90 inHg , 1012.5 hPa
Clouds: Partly Cloudy
Visibility: 10 miles , 16 km
Cloud details: Partly Cloudy 1500 ft
2018/09/22 14:15 KTFP 221415Z AUTO 26008KT 10SM SCT015 28/25 A2990 RMK AO2 LTG DSNT NE T02800247 PNO

Hours of Operation

8 am - 6 pm (7 days a week)
Terminal access 24/7
On call services 24/7 (fee may apply)
(361) 758-2000

Location

Skye FBO - Airport Services
McCampbell-Porter Airport KTFP
3141 FM 3512
Aransas Pass, TX 78336-9728
(361) 758-2000
2 miles N of Ingleside, TX
Only 15 min from downtown Corpus Christi 2 miles N of Ingleside, Texas and only 15 minutes from downtown Corpus Christi, Texas

(click to enlarge)

Skyview Aviation BBB Business Review

24 Hour / 365 Day Access

Call: (361) 758-2000


View Larger Map